Alta Sierra, California
Current Conditions -  °F | °C
As of 12:00 PM on Thursday 30 Oct 2014 (Local Time) from KGOO Reporting Station
Clear Clear  
Wind Chill: 68°   Ceiling: Unl
Heat Index: 68°   Visibility: 10mi
Dew Point: 37°   Wind: 7mph
Humidity: 33%   Direction: 160°SSE
Pressure: 30.04"   Gusts: NA
Location:  39.2183°N, 120.924°W
Report Text: KGOO 301900Z AUTO 16006KT 10SM CLR 20/03 A3004 RMK AO1
Loading
Personal Weather Stations






























Interactive Weather Map
Tropical Storm Tracking
New forecast layout! Learn more

10-Day Weather Forecast

Advertisements
Track Severe Weather on mobile